sensor_id;sensor_type;location;lat;lon;timestamp;P1;durP1;ratioP1;P2;durP2;ratioP2
64061;SDS011;50308;47.438;-1.528;2022-07-29T07:52:17;23.80;;;6.10;;
64061;SDS011;50308;47.438;-1.528;2022-07-29T07:54:48;20.55;;;6.18;;
64061;SDS011;50308;47.438;-1.528;2022-07-29T07:57:14;25.35;;;5.05;;
64061;SDS011;50308;47.438;-1.528;2022-07-29T07:59:40;13.18;;;4.75;;
64061;SDS011;50308;47.438;-1.528;2022-07-29T08:02:07;11.43;;;4.80;;
64061;SDS011;50308;47.438;-1.528;2022-07-29T08:04:33;12.98;;;5.22;;
64061;SDS011;50308;47.438;-1.528;2022-07-29T08:06:59;11.05;;;4.38;;
64061;SDS011;50308;47.438;-1.528;2022-07-29T08:09:26;10.25;;;4.18;;
64061;SDS011;50308;47.438;-1.528;2022-07-29T08:11:53;11.35;;;4.15;;
64061;SDS011;50308;47.438;-1.528;2022-07-29T08:14:19;7.80;;;4.05;;
64061;SDS011;50308;47.438;-1.528;2022-07-29T08:16:45;7.22;;;4.13;;
64061;SDS011;50308;47.438;-1.528;2022-07-29T08:19:11;8.38;;;3.83;;
64061;SDS011;50308;47.438;-1.528;2022-07-29T08:21:37;7.03;;;3.70;;
64061;SDS011;50308;47.438;-1.528;2022-07-29T08:24:03;8.50;;;4.30;;
64061;SDS011;50308;47.438;-1.528;2022-07-29T08:26:48;6.65;;;4.10;;
64061;SDS011;50308;47.438;-1.528;2022-07-29T08:29:14;6.30;;;4.15;;
64061;SDS011;50308;47.438;-1.528;2022-07-29T08:31:41;7.82;;;4.38;;
64061;SDS011;50308;47.438;-1.528;2022-07-29T08:34:07;11.30;;;4.45;;
64061;SDS011;50308;47.438;-1.528;2022-07-29T08:36:33;7.30;;;3.45;;
64061;SDS011;50308;47.438;-1.528;2022-07-29T08:38:59;8.35;;;3.78;;
64061;SDS011;50308;47.438;-1.528;2022-07-29T08:41:25;8.32;;;3.33;;
64061;SDS011;50308;47.438;-1.528;2022-07-29T08:43:52;6.55;;;3.30;;
64061;SDS011;50308;47.438;-1.528;2022-07-29T08:46:18;7.65;;;3.40;;
64061;SDS011;50308;47.438;-1.528;2022-07-29T08:48:44;8.00;;;3.25;;
64061;SDS011;50308;47.438;-1.528;2022-07-29T08:51:14;8.13;;;3.75;;
64061;SDS011;50308;47.438;-1.528;2022-07-29T08:53:42;5.15;;;3.25;;
64061;SDS011;50308;47.438;-1.528;2022-07-29T08:56:11;6.47;;;3.70;;
64061;SDS011;50308;47.438;-1.528;2022-07-29T08:58:47;4.47;;;3.35;;
64061;SDS011;50308;47.438;-1.528;2022-07-29T09:01:13;6.05;;;2.95;;
64061;SDS011;50308;47.438;-1.528;2022-07-29T09:03:45;9.52;;;3.38;;
64061;SDS011;50308;47.438;-1.528;2022-07-29T09:06:15;6.47;;;3.55;;
64061;SDS011;50308;47.438;-1.528;2022-07-29T09:08:43;5.30;;;3.45;;
64061;SDS011;50308;47.438;-1.528;2022-07-29T09:11:10;6.38;;;3.50;;
64061;SDS011;50308;47.438;-1.528;2022-07-29T09:13:36;6.85;;;3.90;;
64061;SDS011;50308;47.438;-1.528;2022-07-29T09:16:02;5.90;;;3.25;;
64061;SDS011;50308;47.438;-1.528;2022-07-29T09:18:35;6.38;;;3.45;;
64061;SDS011;50308;47.438;-1.528;2022-07-29T09:21:06;4.60;;;3.00;;
64061;SDS011;50308;47.438;-1.528;2022-07-29T09:24:08;5.88;;;3.42;;
64061;SDS011;50308;47.438;-1.528;2022-07-29T09:26:36;5.22;;;2.80;;
64061;SDS011;50308;47.438;-1.528;2022-07-29T09:29:10;5.97;;;4.07;;
64061;SDS011;50308;47.438;-1.528;2022-07-29T09:31:44;6.57;;;3.13;;
64061;SDS011;50308;47.438;-1.528;2022-07-29T09:34:11;5.65;;;3.10;;
64061;SDS011;50308;47.438;-1.528;2022-07-29T09:36:42;7.72;;;3.10;;
64061;SDS011;50308;47.438;-1.528;2022-07-29T09:39:09;3.97;;;2.65;;
64061;SDS011;50308;47.438;-1.528;2022-07-29T09:41:49;5.03;;;2.95;;
64061;SDS011;50308;47.438;-1.528;2022-07-29T09:44:20;8.25;;;3.05;;
64061;SDS011;50308;47.438;-1.528;2022-07-29T09:46:59;5.68;;;2.88;;
64061;SDS011;50308;47.438;-1.528;2022-07-29T09:49:49;4.20;;;2.95;;
64061;SDS011;50308;47.438;-1.528;2022-07-29T09:52:28;6.40;;;3.35;;
64061;SDS011;50308;47.438;-1.528;2022-07-29T09:55:07;6.95;;;3.03;;
64061;SDS011;50308;47.438;-1.528;2022-07-29T09:57:34;7.40;;;3.17;;
64061;SDS011;50308;47.438;-1.528;2022-07-29T10:00:04;5.45;;;2.80;;
64061;SDS011;50308;47.438;-1.528;2022-07-29T10:02:32;4.68;;;2.75;;
64061;SDS011;50308;47.438;-1.528;2022-07-29T10:05:00;5.88;;;3.08;;
64061;SDS011;50308;47.438;-1.528;2022-07-29T10:07:48;8.65;;;3.47;;
64061;SDS011;50308;47.438;-1.528;2022-07-29T10:10:19;7.10;;;3.22;;
64061;SDS011;50308;47.438;-1.528;2022-07-29T10:12:50;4.95;;;2.97;;
64061;SDS011;50308;47.438;-1.528;2022-07-29T10:15:17;4.28;;;2.40;;
64061;SDS011;50308;47.438;-1.528;2022-07-29T10:17:44;5.93;;;2.78;;
64061;SDS011;50308;47.438;-1.528;2022-07-29T10:20:10;5.13;;;3.15;;
64061;SDS011;50308;47.438;-1.528;2022-07-29T10:22:36;3.60;;;2.75;;
64061;SDS011;50308;47.438;-1.528;2022-07-29T10:25:02;4.25;;;3.45;;
64061;SDS011;50308;47.438;-1.528;2022-07-29T10:27:28;4.18;;;3.00;;
64061;SDS011;50308;47.438;-1.528;2022-07-29T10:29:54;5.15;;;3.00;;
64061;SDS011;50308;47.438;-1.528;2022-07-29T10:40:27;6.85;;;3.25;;
64061;SDS011;50308;47.438;-1.528;2022-07-29T10:43:32;5.28;;;3.10;;
64061;SDS011;50308;47.438;-1.528;2022-07-29T10:46:01;5.43;;;3.08;;
64061;SDS011;50308;47.438;-1.528;2022-07-29T10:48:28;3.90;;;3.17;;
64061;SDS011;50308;47.438;-1.528;2022-07-29T10:51:04;6.97;;;3.55;;
64061;SDS011;50308;47.438;-1.528;2022-07-29T10:56:25;5.68;;;3.35;;
64061;SDS011;50308;47.438;-1.528;2022-07-29T11:01:47;5.38;;;3.08;;
64061;SDS011;50308;47.438;-1.528;2022-07-29T11:04:14;6.40;;;3.10;;
64061;SDS011;50308;47.438;-1.528;2022-07-29T11:07:14;4.63;;;3.13;;
64061;SDS011;50308;47.438;-1.528;2022-07-29T11:09:33;7.15;;;3.33;;
64061;SDS011;50308;47.438;-1.528;2022-07-29T11:11:59;3.33;;;2.58;;
64061;SDS011;50308;47.438;-1.528;2022-07-29T11:17:22;5.70;;;2.90;;
64061;SDS011;50308;47.438;-1.528;2022-07-29T11:19:48;3.65;;;3.03;;
64061;SDS011;50308;47.438;-1.528;2022-07-29T11:22:33;5.90;;;3.10;;
64061;SDS011;50308;47.438;-1.528;2022-07-29T11:25:32;5.75;;;3.00;;
64061;SDS011;50308;47.438;-1.528;2022-07-29T11:27:51;5.88;;;3.30;;
64061;SDS011;50308;47.438;-1.528;2022-07-29T11:30:19;6.93;;;3.42;;
64061;SDS011;50308;47.438;-1.528;2022-07-29T11:32:45;8.52;;;3.83;;
64061;SDS011;50308;47.438;-1.528;2022-07-29T11:44:15;6.05;;;3.08;;
64061;SDS011;50308;47.438;-1.528;2022-07-29T11:46:50;4.90;;;3.10;;
64061;SDS011;50308;47.438;-1.528;2022-07-29T11:49:20;4.72;;;2.72;;
64061;SDS011;50308;47.438;-1.528;2022-07-29T11:51:54;4.80;;;3.20;;
64061;SDS011;50308;47.438;-1.528;2022-07-29T11:56:54;4.00;;;3.03;;
64061;SDS011;50308;47.438;-1.528;2022-07-29T11:59:20;6.25;;;3.53;;
64061;SDS011;50308;47.438;-1.528;2022-07-29T12:01:53;4.63;;;3.03;;
64061;SDS011;50308;47.438;-1.528;2022-07-29T12:04:22;3.90;;;3.00;;
64061;SDS011;50308;47.438;-1.528;2022-07-29T12:06:57;5.28;;;3.25;;
64061;SDS011;50308;47.438;-1.528;2022-07-29T12:09:23;5.32;;;3.22;;
64061;SDS011;50308;47.438;-1.528;2022-07-29T12:11:49;5.65;;;3.03;;
64061;SDS011;50308;47.438;-1.528;2022-07-29T12:14:29;3.80;;;2.92;;
64061;SDS011;50308;47.438;-1.528;2022-07-29T12:16:56;4.70;;;2.78;;
64061;SDS011;50308;47.438;-1.528;2022-07-29T12:19:22;4.50;;;2.88;;
64061;SDS011;50308;47.438;-1.528;2022-07-29T12:21:49;4.95;;;2.90;;
64061;SDS011;50308;47.438;-1.528;2022-07-29T12:24:16;5.72;;;2.90;;
64061;SDS011;50308;47.438;-1.528;2022-07-29T12:26:52;5.20;;;3.10;;
64061;SDS011;50308;47.438;-1.528;2022-07-29T12:29:20;3.60;;;2.88;;
64061;SDS011;50308;47.438;-1.528;2022-07-29T12:31:50;4.93;;;3.10;;
64061;SDS011;50308;47.438;-1.528;2022-07-29T12:34:19;3.47;;;2.53;;
64061;SDS011;50308;47.438;-1.528;2022-07-29T12:36:47;6.22;;;2.85;;
64061;SDS011;50308;47.438;-1.528;2022-07-29T12:39:15;4.32;;;3.20;;
64061;SDS011;50308;47.438;-1.528;2022-07-29T12:41:42;4.20;;;2.60;;
64061;SDS011;50308;47.438;-1.528;2022-07-29T12:44:08;4.05;;;2.75;;
64061;SDS011;50308;47.438;-1.528;2022-07-29T12:46:33;2.63;;;2.22;;
64061;SDS011;50308;47.438;-1.528;2022-07-29T12:48:59;5.25;;;2.95;;
64061;SDS011;50308;47.438;-1.528;2022-07-29T12:51:35;4.63;;;2.75;;
64061;SDS011;50308;47.438;-1.528;2022-07-29T12:54:13;4.95;;;2.65;;
64061;SDS011;50308;47.438;-1.528;2022-07-29T12:56:40;6.00;;;2.85;;
64061;SDS011;50308;47.438;-1.528;2022-07-29T12:59:17;5.03;;;2.80;;
64061;SDS011;50308;47.438;-1.528;2022-07-29T13:01:48;5.10;;;2.50;;
64061;SDS011;50308;47.438;-1.528;2022-07-29T13:04:28;4.28;;;3.08;;
64061;SDS011;50308;47.438;-1.528;2022-07-29T13:06:59;6.05;;;2.60;;
64061;SDS011;50308;47.438;-1.528;2022-07-29T13:09:37;3.88;;;2.83;;
64061;SDS011;50308;47.438;-1.528;2022-07-29T13:12:08;5.60;;;3.38;;
64061;SDS011;50308;47.438;-1.528;2022-07-29T13:14:36;6.32;;;3.08;;
64061;SDS011;50308;47.438;-1.528;2022-07-29T13:17:10;4.53;;;2.90;;
64061;SDS011;50308;47.438;-1.528;2022-07-29T13:19:38;3.40;;;2.40;;
64061;SDS011;50308;47.438;-1.528;2022-07-29T13:22:05;3.65;;;2.75;;
64061;SDS011;50308;47.438;-1.528;2022-07-29T13:24:32;3.58;;;2.60;;
64061;SDS011;50308;47.438;-1.528;2022-07-29T13:26:58;5.03;;;2.60;;
64061;SDS011;50308;47.438;-1.528;2022-07-29T13:29:24;3.22;;;2.45;;
64061;SDS011;50308;47.438;-1.528;2022-07-29T13:31:51;5.30;;;2.70;;
64061;SDS011;50308;47.438;-1.528;2022-07-29T13:34:17;4.93;;;3.03;;
64061;SDS011;50308;47.438;-1.528;2022-07-29T13:36:44;4.22;;;3.28;;
64061;SDS011;50308;47.438;-1.528;2022-07-29T13:39:10;5.25;;;3.50;;
64061;SDS011;50308;47.438;-1.528;2022-07-29T13:41:36;5.28;;;2.92;;
64061;SDS011;50308;47.438;-1.528;2022-07-29T13:44:02;5.00;;;3.30;;
64061;SDS011;50308;47.438;-1.528;2022-07-29T13:46:27;4.05;;;3.25;;
64061;SDS011;50308;47.438;-1.528;2022-07-29T13:48:53;7.18;;;3.53;;
64061;SDS011;50308;47.438;-1.528;2022-07-29T13:51:19;6.53;;;3.58;;
64061;SDS011;50308;47.438;-1.528;2022-07-29T13:53:44;4.63;;;3.03;;
64061;SDS011;50308;47.438;-1.528;2022-07-29T13:56:10;5.22;;;3.75;;
64061;SDS011;50308;47.438;-1.528;2022-07-29T13:58:36;5.93;;;3.22;;
64061;SDS011;50308;47.438;-1.528;2022-07-29T14:01:02;4.90;;;2.88;;
64061;SDS011;50308;47.438;-1.528;2022-07-29T14:03:27;8.75;;;3.80;;
64061;SDS011;50308;47.438;-1.528;2022-07-29T14:05:53;4.07;;;2.80;;
64061;SDS011;50308;47.438;-1.528;2022-07-29T14:08:19;7.30;;;4.07;;
64061;SDS011;50308;47.438;-1.528;2022-07-29T14:10:45;6.38;;;3.80;;
64061;SDS011;50308;47.438;-1.528;2022-07-29T14:13:10;6.53;;;3.42;;
64061;SDS011;50308;47.438;-1.528;2022-07-29T14:15:36;4.28;;;3.38;;
64061;SDS011;50308;47.438;-1.528;2022-07-29T14:18:02;5.22;;;3.08;;
64061;SDS011;50308;47.438;-1.528;2022-07-29T14:20:27;6.95;;;4.07;;
64061;SDS011;50308;47.438;-1.528;2022-07-29T14:22:55;5.03;;;3.00;;
64061;SDS011;50308;47.438;-1.528;2022-07-29T14:25:21;6.85;;;3.95;;
64061;SDS011;50308;47.438;-1.528;2022-07-29T14:27:47;4.18;;;3.45;;
64061;SDS011;50308;47.438;-1.528;2022-07-29T14:30:13;4.18;;;3.00;;
64061;SDS011;50308;47.438;-1.528;2022-07-29T14:32:39;5.32;;;3.53;;
64061;SDS011;50308;47.438;-1.528;2022-07-29T14:35:05;6.47;;;3.65;;
64061;SDS011;50308;47.438;-1.528;2022-07-29T14:37:32;4.93;;;3.40;;
64061;SDS011;50308;47.438;-1.528;2022-07-29T14:39:59;5.63;;;3.33;;
64061;SDS011;50308;47.438;-1.528;2022-07-29T14:42:27;5.68;;;3.90;;
64061;SDS011;50308;47.438;-1.528;2022-07-29T14:44:53;4.70;;;3.30;;
64061;SDS011;50308;47.438;-1.528;2022-07-29T14:47:19;4.63;;;3.20;;
64061;SDS011;50308;47.438;-1.528;2022-07-29T14:49:44;4.78;;;3.13;;
64061;SDS011;50308;47.438;-1.528;2022-07-29T14:52:10;5.10;;;3.35;;
64061;SDS011;50308;47.438;-1.528;2022-07-29T14:54:36;5.72;;;3.97;;
64061;SDS011;50308;47.438;-1.528;2022-07-29T14:57:02;4.20;;;3.33;;
64061;SDS011;50308;47.438;-1.528;2022-07-29T14:59:27;4.20;;;3.40;;
64061;SDS011;50308;47.438;-1.528;2022-07-29T15:01:53;4.75;;;3.53;;
64061;SDS011;50308;47.438;-1.528;2022-07-29T15:04:19;3.25;;;2.95;;
64061;SDS011;50308;47.438;-1.528;2022-07-29T15:06:45;7.07;;;3.78;;
64061;SDS011;50308;47.438;-1.528;2022-07-29T15:09:11;5.25;;;3.50;;
64061;SDS011;50308;47.438;-1.528;2022-07-29T15:11:36;7.00;;;3.53;;
64061;SDS011;50308;47.438;-1.528;2022-07-29T15:14:02;11.93;;;4.43;;
64061;SDS011;50308;47.438;-1.528;2022-07-29T15:16:28;4.38;;;3.67;;
64061;SDS011;50308;47.438;-1.528;2022-07-29T15:18:54;7.30;;;4.43;;
64061;SDS011;50308;47.438;-1.528;2022-07-29T15:21:21;6.40;;;4.13;;
64061;SDS011;50308;47.438;-1.528;2022-07-29T15:23:47;9.43;;;4.20;;
64061;SDS011;50308;47.438;-1.528;2022-07-29T15:26:12;5.15;;;3.80;;
64061;SDS011;50308;47.438;-1.528;2022-07-29T15:28:38;8.15;;;4.10;;
64061;SDS011;50308;47.438;-1.528;2022-07-29T15:31:05;6.53;;;3.83;;
64061;SDS011;50308;47.438;-1.528;2022-07-29T15:33:30;6.60;;;3.70;;
64061;SDS011;50308;47.438;-1.528;2022-07-29T15:35:56;6.88;;;4.00;;
64061;SDS011;50308;47.438;-1.528;2022-07-29T15:38:22;5.50;;;3.80;;
64061;SDS011;50308;47.438;-1.528;2022-07-29T15:40:47;3.85;;;3.28;;
64061;SDS011;50308;47.438;-1.528;2022-07-29T15:43:13;4.40;;;3.42;;
64061;SDS011;50308;47.438;-1.528;2022-07-29T15:45:39;7.15;;;3.72;;
64061;SDS011;50308;47.438;-1.528;2022-07-29T15:48:06;4.78;;;3.17;;
64061;SDS011;50308;47.438;-1.528;2022-07-29T15:50:33;10.05;;;4.18;;
64061;SDS011;50308;47.438;-1.528;2022-07-29T15:52:59;7.07;;;3.92;;
64061;SDS011;50308;47.438;-1.528;2022-07-29T15:55:25;4.25;;;3.47;;
64061;SDS011;50308;47.438;-1.528;2022-07-29T15:57:51;4.90;;;3.38;;
64061;SDS011;50308;47.438;-1.528;2022-07-29T16:00:17;4.50;;;3.53;;
64061;SDS011;50308;47.438;-1.528;2022-07-29T16:02:43;5.15;;;3.67;;
64061;SDS011;50308;47.438;-1.528;2022-07-29T16:05:09;6.78;;;4.05;;
64061;SDS011;50308;47.438;-1.528;2022-07-29T16:07:35;5.47;;;3.97;;
64061;SDS011;50308;47.438;-1.528;2022-07-29T16:10:01;4.82;;;4.03;;
64061;SDS011;50308;47.438;-1.528;2022-07-29T16:12:28;8.20;;;3.75;;
64061;SDS011;50308;47.438;-1.528;2022-07-29T16:14:54;6.57;;;4.55;;
64061;SDS011;50308;47.438;-1.528;2022-07-29T16:17:19;6.15;;;3.78;;
64061;SDS011;50308;47.438;-1.528;2022-07-29T16:19:45;7.38;;;3.88;;
64061;SDS011;50308;47.438;-1.528;2022-07-29T16:22:11;8.95;;;4.05;;
64061;SDS011;50308;47.438;-1.528;2022-07-29T16:24:37;5.50;;;3.70;;
64061;SDS011;50308;47.438;-1.528;2022-07-29T16:27:03;5.72;;;3.63;;
64061;SDS011;50308;47.438;-1.528;2022-07-29T16:29:29;7.85;;;3.88;;
64061;SDS011;50308;47.438;-1.528;2022-07-29T16:31:55;5.13;;;3.45;;
64061;SDS011;50308;47.438;-1.528;2022-07-29T16:34:20;6.93;;;4.13;;
64061;SDS011;50308;47.438;-1.528;2022-07-29T16:36:46;5.65;;;3.97;;
64061;SDS011;50308;47.438;-1.528;2022-07-29T16:39:12;7.63;;;4.03;;
64061;SDS011;50308;47.438;-1.528;2022-07-29T16:41:37;6.00;;;3.90;;
64061;SDS011;50308;47.438;-1.528;2022-07-29T16:44:03;4.38;;;3.58;;
64061;SDS011;50308;47.438;-1.528;2022-07-29T16:46:29;6.50;;;3.70;;
64061;SDS011;50308;47.438;-1.528;2022-07-29T16:48:55;9.18;;;4.32;;
64061;SDS011;50308;47.438;-1.528;2022-07-29T16:51:20;7.93;;;4.90;;
64061;SDS011;50308;47.438;-1.528;2022-07-29T16:53:46;8.55;;;4.63;;
64061;SDS011;50308;47.438;-1.528;2022-07-29T16:56:12;9.77;;;4.97;;
64061;SDS011;50308;47.438;-1.528;2022-07-29T16:58:38;8.13;;;4.40;;
64061;SDS011;50308;47.438;-1.528;2022-07-29T17:01:03;8.88;;;4.68;;
64061;SDS011;50308;47.438;-1.528;2022-07-29T17:03:30;9.77;;;5.22;;
64061;SDS011;50308;47.438;-1.528;2022-07-29T17:05:56;5.50;;;4.60;;
64061;SDS011;50308;47.438;-1.528;2022-07-29T17:08:22;7.70;;;4.97;;
64061;SDS011;50308;47.438;-1.528;2022-07-29T17:10:47;9.68;;;4.93;;
64061;SDS011;50308;47.438;-1.528;2022-07-29T17:13:13;9.05;;;4.63;;
64061;SDS011;50308;47.438;-1.528;2022-07-29T17:15:39;7.38;;;4.90;;
64061;SDS011;50308;47.438;-1.528;2022-07-29T17:18:06;8.75;;;4.68;;
64061;SDS011;50308;47.438;-1.528;2022-07-29T17:20:32;7.65;;;4.80;;
64061;SDS011;50308;47.438;-1.528;2022-07-29T17:23:00;8.18;;;4.90;;
64061;SDS011;50308;47.438;-1.528;2022-07-29T17:25:26;7.25;;;4.55;;
64061;SDS011;50308;47.438;-1.528;2022-07-29T17:27:52;8.35;;;4.60;;
64061;SDS011;50308;47.438;-1.528;2022-07-29T17:30:19;9.82;;;4.80;;
64061;SDS011;50308;47.438;-1.528;2022-07-29T17:32:45;7.95;;;4.50;;
64061;SDS011;50308;47.438;-1.528;2022-07-29T17:35:11;12.30;;;4.50;;
64061;SDS011;50308;47.438;-1.528;2022-07-29T17:37:55;10.30;;;5.25;;
64061;SDS011;50308;47.438;-1.528;2022-07-29T17:40:21;8.25;;;4.65;;
64061;SDS011;50308;47.438;-1.528;2022-07-29T17:42:47;8.27;;;4.82;;
64061;SDS011;50308;47.438;-1.528;2022-07-29T17:45:13;7.70;;;4.88;;
64061;SDS011;50308;47.438;-1.528;2022-07-29T17:47:39;8.15;;;4.72;;
64061;SDS011;50308;47.438;-1.528;2022-07-29T17:50:05;8.23;;;4.57;;
64061;SDS011;50308;47.438;-1.528;2022-07-29T17:52:31;8.80;;;4.55;;
64061;SDS011;50308;47.438;-1.528;2022-07-29T17:54:57;8.43;;;4.55;;
64061;SDS011;50308;47.438;-1.528;2022-07-29T17:57:23;8.48;;;5.05;;
64061;SDS011;50308;47.438;-1.528;2022-07-29T17:59:49;7.97;;;4.78;;
64061;SDS011;50308;47.438;-1.528;2022-07-29T18:02:14;10.15;;;4.60;;
64061;SDS011;50308;47.438;-1.528;2022-07-29T18:04:40;6.50;;;4.55;;
64061;SDS011;50308;47.438;-1.528;2022-07-29T18:07:06;7.80;;;4.78;;
64061;SDS011;50308;47.438;-1.528;2022-07-29T18:09:31;9.27;;;4.75;;
64061;SDS011;50308;47.438;-1.528;2022-07-29T18:11:57;6.15;;;4.25;;
64061;SDS011;50308;47.438;-1.528;2022-07-29T18:14:23;10.18;;;5.00;;
64061;SDS011;50308;47.438;-1.528;2022-07-29T18:16:48;7.55;;;4.80;;
64061;SDS011;50308;47.438;-1.528;2022-07-29T18:19:14;10.10;;;4.63;;
64061;SDS011;50308;47.438;-1.528;2022-07-29T18:21:40;6.95;;;4.47;;
64061;SDS011;50308;47.438;-1.528;2022-07-29T18:24:06;7.32;;;4.53;;
64061;SDS011;50308;47.438;-1.528;2022-07-29T18:26:32;5.32;;;4.10;;
64061;SDS011;50308;47.438;-1.528;2022-07-29T18:28:57;7.07;;;4.25;;
64061;SDS011;50308;47.438;-1.528;2022-07-29T18:31:25;8.27;;;4.20;;
64061;SDS011;50308;47.438;-1.528;2022-07-29T18:33:51;8.23;;;4.55;;
64061;SDS011;50308;47.438;-1.528;2022-07-29T18:36:17;7.35;;;4.07;;
64061;SDS011;50308;47.438;-1.528;2022-07-29T18:38:42;7.25;;;3.97;;
64061;SDS011;50308;47.438;-1.528;2022-07-29T18:41:08;9.88;;;4.57;;
64061;SDS011;50308;47.438;-1.528;2022-07-29T18:43:34;9.57;;;4.82;;
64061;SDS011;50308;47.438;-1.528;2022-07-29T18:46:00;8.35;;;3.90;;
64061;SDS011;50308;47.438;-1.528;2022-07-29T18:48:26;5.85;;;3.90;;
64061;SDS011;50308;47.438;-1.528;2022-07-29T18:50:51;7.25;;;4.10;;
64061;SDS011;50308;47.438;-1.528;2022-07-29T18:53:17;8.27;;;4.68;;
64061;SDS011;50308;47.438;-1.528;2022-07-29T18:55:43;5.78;;;3.45;;
64061;SDS011;50308;47.438;-1.528;2022-07-29T18:58:09;5.45;;;3.60;;
64061;SDS011;50308;47.438;-1.528;2022-07-29T19:00:35;6.97;;;4.35;;
64061;SDS011;50308;47.438;-1.528;2022-07-29T19:03:00;5.22;;;3.72;;
64061;SDS011;50308;47.438;-1.528;2022-07-29T19:05:27;5.78;;;3.67;;
64061;SDS011;50308;47.438;-1.528;2022-07-29T19:07:52;7.53;;;3.97;;
64061;SDS011;50308;47.438;-1.528;2022-07-29T19:10:20;6.85;;;4.03;;
64061;SDS011;50308;47.438;-1.528;2022-07-29T19:12:46;6.95;;;3.88;;
64061;SDS011;50308;47.438;-1.528;2022-07-29T19:15:12;5.38;;;4.00;;
64061;SDS011;50308;47.438;-1.528;2022-07-29T19:17:37;5.55;;;3.58;;
64061;SDS011;50308;47.438;-1.528;2022-07-29T19:20:03;4.75;;;3.40;;
64061;SDS011;50308;47.438;-1.528;2022-07-29T19:22:30;7.13;;;3.92;;
64061;SDS011;50308;47.438;-1.528;2022-07-29T19:24:57;4.13;;;3.38;;
64061;SDS011;50308;47.438;-1.528;2022-07-29T19:27:22;8.95;;;3.78;;
64061;SDS011;50308;47.438;-1.528;2022-07-29T19:29:49;6.75;;;4.13;;
64061;SDS011;50308;47.438;-1.528;2022-07-29T19:32:15;6.35;;;3.83;;
64061;SDS011;50308;47.438;-1.528;2022-07-29T19:34:41;7.50;;;3.35;;
64061;SDS011;50308;47.438;-1.528;2022-07-29T19:37:27;9.27;;;3.78;;
64061;SDS011;50308;47.438;-1.528;2022-07-29T19:39:52;11.82;;;4.13;;
64061;SDS011;50308;47.438;-1.528;2022-07-29T19:42:18;7.47;;;3.70;;
64061;SDS011;50308;47.438;-1.528;2022-07-29T19:44:44;7.30;;;4.00;;
64061;SDS011;50308;47.438;-1.528;2022-07-29T19:47:09;9.77;;;4.10;;
64061;SDS011;50308;47.438;-1.528;2022-07-29T19:49:35;6.57;;;4.05;;
64061;SDS011;50308;47.438;-1.528;2022-07-29T19:52:03;7.13;;;3.63;;
64061;SDS011;50308;47.438;-1.528;2022-07-29T19:54:29;9.38;;;3.75;;
64061;SDS011;50308;47.438;-1.528;2022-07-29T19:56:54;7.30;;;3.40;;
64061;SDS011;50308;47.438;-1.528;2022-07-29T19:59:20;7.05;;;3.47;;
64061;SDS011;50308;47.438;-1.528;2022-07-29T20:01:46;8.38;;;4.03;;
64061;SDS011;50308;47.438;-1.528;2022-07-29T20:04:11;4.95;;;3.80;;
64061;SDS011;50308;47.438;-1.528;2022-07-29T20:06:37;6.18;;;3.97;;
64061;SDS011;50308;47.438;-1.528;2022-07-29T20:09:03;8.90;;;4.10;;
64061;SDS011;50308;47.438;-1.528;2022-07-29T20:11:30;5.63;;;3.90;;
64061;SDS011;50308;47.438;-1.528;2022-07-29T20:14:00;8.75;;;3.88;;
64061;SDS011;50308;47.438;-1.528;2022-07-29T20:16:26;6.13;;;4.07;;
64061;SDS011;50308;47.438;-1.528;2022-07-29T20:18:52;6.82;;;4.03;;
64061;SDS011;50308;47.438;-1.528;2022-07-29T20:21:18;4.82;;;4.05;;
64061;SDS011;50308;47.438;-1.528;2022-07-29T20:23:43;5.13;;;3.50;;
64061;SDS011;50308;47.438;-1.528;2022-07-29T20:26:09;5.03;;;3.60;;
64061;SDS011;50308;47.438;-1.528;2022-07-29T20:28:36;7.72;;;4.18;;
64061;SDS011;50308;47.438;-1.528;2022-07-29T20:31:04;4.95;;;3.60;;
64061;SDS011;50308;47.438;-1.528;2022-07-29T20:33:29;7.68;;;3.60;;
64061;SDS011;50308;47.438;-1.528;2022-07-29T20:35:55;7.65;;;4.25;;
64061;SDS011;50308;47.438;-1.528;2022-07-29T20:38:21;7.57;;;3.80;;
64061;SDS011;50308;47.438;-1.528;2022-07-29T20:40:47;8.65;;;3.70;;
64061;SDS011;50308;47.438;-1.528;2022-07-29T20:43:13;5.22;;;3.67;;
64061;SDS011;50308;47.438;-1.528;2022-07-29T20:45:39;8.68;;;4.03;;
64061;SDS011;50308;47.438;-1.528;2022-07-29T20:48:05;4.93;;;3.58;;
64061;SDS011;50308;47.438;-1.528;2022-07-29T20:50:31;7.57;;;3.75;;
64061;SDS011;50308;47.438;-1.528;2022-07-29T20:52:57;6.68;;;3.90;;
64061;SDS011;50308;47.438;-1.528;2022-07-29T20:55:22;7.75;;;4.07;;
64061;SDS011;50308;47.438;-1.528;2022-07-29T20:57:48;7.88;;;4.15;;
64061;SDS011;50308;47.438;-1.528;2022-07-29T21:00:14;5.95;;;4.05;;
64061;SDS011;50308;47.438;-1.528;2022-07-29T21:02:40;7.78;;;4.07;;
64061;SDS011;50308;47.438;-1.528;2022-07-29T21:05:05;5.53;;;3.88;;
64061;SDS011;50308;47.438;-1.528;2022-07-29T21:07:31;6.85;;;3.85;;
64061;SDS011;50308;47.438;-1.528;2022-07-29T21:09:57;6.95;;;4.03;;
64061;SDS011;50308;47.438;-1.528;2022-07-29T21:12:23;7.53;;;3.70;;
64061;SDS011;50308;47.438;-1.528;2022-07-29T21:14:48;7.78;;;3.60;;
64061;SDS011;50308;47.438;-1.528;2022-07-29T21:17:16;8.38;;;3.47;;
64061;SDS011;50308;47.438;-1.528;2022-07-29T21:19:44;5.95;;;3.60;;
64061;SDS011;50308;47.438;-1.528;2022-07-29T21:22:11;7.53;;;3.50;;
64061;SDS011;50308;47.438;-1.528;2022-07-29T21:24:36;8.13;;;3.65;;
64061;SDS011;50308;47.438;-1.528;2022-07-29T21:27:02;6.53;;;3.70;;
64061;SDS011;50308;47.438;-1.528;2022-07-29T21:29:47;8.68;;;4.22;;
64061;SDS011;50308;47.438;-1.528;2022-07-29T21:32:13;7.60;;;3.80;;
64061;SDS011;50308;47.438;-1.528;2022-07-29T21:34:38;8.20;;;3.85;;
64061;SDS011;50308;47.438;-1.528;2022-07-29T21:37:04;9.40;;;3.58;;
64061;SDS011;50308;47.438;-1.528;2022-07-29T21:39:30;4.68;;;3.72;;
64061;SDS011;50308;47.438;-1.528;2022-07-29T21:41:55;5.55;;;3.78;;
64061;SDS011;50308;47.438;-1.528;2022-07-29T21:44:21;7.38;;;3.78;;
64061;SDS011;50308;47.438;-1.528;2022-07-29T21:46:47;6.80;;;3.72;;
64061;SDS011;50308;47.438;-1.528;2022-07-29T21:49:13;5.57;;;3.58;;
64061;SDS011;50308;47.438;-1.528;2022-07-29T21:51:38;6.38;;;4.03;;
64061;SDS011;50308;47.438;-1.528;2022-07-29T21:54:04;4.63;;;3.30;;
64061;SDS011;50308;47.438;-1.528;2022-07-29T21:56:30;8.23;;;3.40;;
64061;SDS011;50308;47.438;-1.528;2022-07-29T21:58:56;8.80;;;4.32;;
64061;SDS011;50308;47.438;-1.528;2022-07-29T22:01:21;7.72;;;3.92;;
64061;SDS011;50308;47.438;-1.528;2022-07-29T22:03:48;7.28;;;3.60;;
64061;SDS011;50308;47.438;-1.528;2022-07-29T22:06:13;7.70;;;3.97;;
64061;SDS011;50308;47.438;-1.528;2022-07-29T22:08:39;7.60;;;3.65;;
64061;SDS011;50308;47.438;-1.528;2022-07-29T22:11:05;5.53;;;3.63;;
64061;SDS011;50308;47.438;-1.528;2022-07-29T22:13:31;7.25;;;3.55;;
64061;SDS011;50308;47.438;-1.528;2022-07-29T22:15:57;9.07;;;3.83;;
64061;SDS011;50308;47.438;-1.528;2022-07-29T22:18:23;8.63;;;3.80;;
64061;SDS011;50308;47.438;-1.528;2022-07-29T22:20:48;7.15;;;4.18;;
64061;SDS011;50308;47.438;-1.528;2022-07-29T22:23:14;7.78;;;3.63;;
64061;SDS011;50308;47.438;-1.528;2022-07-29T22:25:40;6.90;;;3.60;;
64061;SDS011;50308;47.438;-1.528;2022-07-29T22:28:06;6.45;;;3.42;;
64061;SDS011;50308;47.438;-1.528;2022-07-29T22:30:31;9.05;;;3.80;;
64061;SDS011;50308;47.438;-1.528;2022-07-29T22:32:57;8.40;;;3.97;;
64061;SDS011;50308;47.438;-1.528;2022-07-29T22:35:23;7.25;;;3.95;;
64061;SDS011;50308;47.438;-1.528;2022-07-29T22:37:48;6.28;;;3.70;;
64061;SDS011;50308;47.438;-1.528;2022-07-29T22:40:15;6.40;;;4.32;;
64061;SDS011;50308;47.438;-1.528;2022-07-29T22:42:40;6.35;;;3.80;;
64061;SDS011;50308;47.438;-1.528;2022-07-29T22:45:07;5.35;;;3.83;;
64061;SDS011;50308;47.438;-1.528;2022-07-29T22:47:33;6.38;;;3.70;;
64061;SDS011;50308;47.438;-1.528;2022-07-29T22:49:59;8.00;;;4.55;;
64061;SDS011;50308;47.438;-1.528;2022-07-29T22:52:25;7.40;;;4.30;;
64061;SDS011;50308;47.438;-1.528;2022-07-29T22:54:50;6.72;;;3.85;;